createdAt,value
2022-08-08T00:04:35.367Z,12.99
2022-08-08T00:09:53.382Z,12.96
2022-08-08T00:15:05.186Z,12.86
2022-08-08T00:20:14.619Z,12.80
2022-08-08T00:25:23.848Z,12.79
2022-08-08T00:30:36.346Z,12.71
2022-08-08T00:35:51.363Z,12.64
2022-08-08T00:41:55.127Z,12.55
2022-08-08T00:47:37.053Z,12.50
2022-08-08T00:53:13.936Z,12.43
2022-08-08T00:59:04.692Z,12.45
2022-08-08T01:04:50.450Z,12.38
2022-08-08T01:10:29.470Z,12.25
2022-08-08T01:16:21.875Z,12.13
2022-08-08T01:22:10.102Z,12.07
2022-08-08T01:28:02.226Z,12.06
2022-08-08T01:33:53.933Z,11.94
2022-08-08T01:39:23.457Z,11.91
2022-08-08T01:44:37.441Z,11.87
2022-08-08T01:49:53.890Z,11.81
2022-08-08T01:55:45.065Z,11.75
2022-08-08T02:00:41.483Z,11.76
2022-08-08T02:05:58.985Z,11.78
2022-08-08T02:11:23.167Z,11.68
2022-08-08T02:16:29.263Z,11.59
2022-08-08T02:21:59.380Z,11.51
2022-08-08T02:27:07.164Z,11.43
2022-08-08T02:32:34.698Z,11.41
2022-08-08T02:38:09.200Z,11.39
2022-08-08T02:44:35.167Z,11.37
2022-08-08T02:49:47.419Z,11.32
2022-08-08T02:55:39.902Z,11.25
2022-08-08T03:01:14.950Z,11.22
2022-08-08T03:06:34.787Z,11.09
2022-08-08T03:12:13.986Z,11.02
2022-08-08T03:17:38.944Z,11.08
2022-08-08T03:22:48.034Z,11.10
2022-08-08T03:28:01.534Z,11.12
2022-08-08T03:33:55.987Z,11.05
2022-08-08T03:38:56.528Z,10.98
2022-08-08T03:44:02.020Z,10.88
2022-08-08T03:49:30.266Z,10.93
2022-08-08T03:54:41.759Z,10.89
2022-08-08T04:00:02.543Z,10.85
2022-08-08T04:05:13.562Z,10.90
2022-08-08T04:10:23.287Z,10.92
2022-08-08T04:15:38.227Z,10.97
2022-08-08T04:20:41.663Z,11.05
2022-08-08T04:25:45.511Z,11.07
2022-08-08T04:30:49.191Z,11.18
2022-08-08T04:35:52.028Z,11.31
2022-08-08T04:40:56.268Z,11.47
2022-08-08T04:45:58.963Z,11.64
2022-08-08T04:51:01.517Z,11.80
2022-08-08T04:56:05.713Z,11.90
2022-08-08T05:01:10.889Z,12.11
2022-08-08T05:06:18.451Z,12.40
2022-08-08T05:11:29.919Z,12.47
2022-08-08T05:16:51.536Z,12.54
2022-08-08T05:22:03.251Z,12.69
2022-08-08T05:27:07.655Z,12.87
2022-08-08T05:32:12.744Z,13.04
2022-08-08T05:37:19.771Z,13.27
2022-08-08T05:42:38.235Z,13.47
2022-08-08T05:47:59.851Z,13.73
2022-08-08T05:53:53.839Z,14.02
2022-08-08T05:58:33.229Z,14.28
2022-08-08T06:03:37.743Z,14.58
2022-08-08T06:08:55.113Z,14.90
2022-08-08T06:14:06.567Z,15.28
2022-08-08T06:19:17.814Z,15.70
2022-08-08T06:24:30.286Z,17.33
2022-08-08T06:29:56.555Z,20.49
2022-08-08T06:36:00.648Z,22.18
2022-08-08T06:40:36.841Z,23.50
2022-08-08T06:45:41.801Z,24.47
2022-08-08T06:50:46.804Z,25.19
2022-08-08T06:56:01.985Z,25.39
2022-08-08T07:02:17.266Z,25.28
2022-08-08T07:06:35.013Z,25.33
2022-08-08T07:11:50.671Z,26.14
2022-08-08T07:17:02.826Z,26.42
2022-08-08T07:22:18.685Z,26.70
2022-08-08T07:27:35.252Z,26.24
2022-08-08T07:32:48.896Z,27.39
2022-08-08T07:38:02.761Z,26.47
2022-08-08T07:43:13.096Z,26.83
2022-08-08T07:48:16.985Z,27.71
2022-08-08T07:54:00.697Z,27.12
2022-08-08T07:58:52.655Z,27.96
2022-08-08T08:04:03.718Z,28.48
2022-08-08T08:09:13.375Z,28.21
2022-08-08T08:14:20.111Z,27.95
2022-08-08T08:19:32.007Z,28.28
2022-08-08T08:24:48.489Z,28.62
2022-08-08T08:29:53.232Z,28.73
2022-08-08T08:34:57.783Z,28.53
2022-08-08T08:40:02.934Z,29.28
2022-08-08T08:45:20.769Z,28.84
2022-08-08T08:50:32.449Z,29.82
2022-08-08T08:55:40.736Z,29.66
2022-08-08T09:01:04.975Z,29.37
2022-08-08T09:06:26.681Z,29.52
2022-08-08T09:11:35.200Z,30.01
2022-08-08T09:16:51.470Z,30.94
2022-08-08T09:22:06.326Z,30.89
2022-08-08T09:27:15.030Z,29.75
2022-08-08T09:32:35.643Z,30.00
2022-08-08T09:38:01.620Z,31.38
2022-08-08T09:43:16.840Z,30.89
2022-08-08T09:48:42.538Z,30.45
2022-08-08T09:53:54.770Z,29.20
2022-08-08T09:59:42.715Z,28.23
2022-08-08T10:04:41.948Z,26.01
2022-08-08T10:09:59.730Z,24.87
2022-08-08T10:15:17.469Z,24.39
2022-08-08T10:20:25.925Z,24.39
2022-08-08T10:25:57.386Z,25.31
2022-08-08T10:31:25.300Z,26.22
2022-08-08T10:36:47.048Z,25.37
2022-08-08T10:42:15.030Z,26.28
2022-08-08T10:47:21.583Z,26.10
2022-08-08T10:52:30.881Z,27.19
2022-08-08T10:57:50.181Z,25.99
2022-08-08T11:02:53.987Z,24.85
2022-08-08T11:08:38.393Z,24.55
2022-08-08T11:13:30.053Z,24.76
2022-08-08T11:18:34.677Z,24.83
2022-08-08T11:23:42.727Z,24.71
2022-08-08T11:28:47.809Z,24.79
2022-08-08T11:34:02.962Z,24.67
2022-08-08T11:39:12.730Z,26.58
2022-08-08T11:44:16.885Z,28.83
2022-08-08T11:49:32.235Z,29.11
2022-08-08T11:54:44.693Z,27.24
2022-08-08T12:00:00.497Z,25.95
2022-08-08T12:05:08.250Z,25.48
2022-08-08T12:10:17.750Z,25.05
2022-08-08T12:15:29.402Z,26.08
2022-08-08T12:20:38.904Z,27.73
2022-08-08T12:25:44.858Z,26.88
2022-08-08T12:31:07.064Z,25.19
2022-08-08T12:36:11.843Z,25.19
2022-08-08T12:41:33.999Z,26.85
2022-08-08T12:46:38.577Z,28.91
2022-08-08T12:51:50.210Z,29.82
2022-08-08T12:57:12.859Z,27.59
2022-08-08T13:02:28.685Z,26.11
2022-08-08T13:08:03.307Z,25.56
2022-08-08T13:13:06.050Z,26.07
2022-08-08T13:18:14.036Z,27.57
2022-08-08T13:23:35.933Z,28.22
2022-08-08T13:28:41.425Z,27.70
2022-08-08T13:33:50.119Z,27.47
2022-08-08T13:38:53.018Z,26.98
2022-08-08T13:43:55.614Z,26.49
2022-08-08T13:50:32.253Z,25.58
2022-08-08T13:54:29.283Z,25.11
2022-08-08T13:59:35.539Z,24.84
2022-08-08T14:04:54.222Z,25.21
2022-08-08T14:10:05.498Z,26.34
2022-08-08T14:15:31.237Z,27.57
2022-08-08T14:20:57.767Z,26.18
2022-08-08T14:26:10.377Z,25.34
2022-08-08T14:31:20.277Z,24.91
2022-08-08T14:36:35.615Z,25.94
2022-08-08T14:41:53.691Z,26.69
2022-08-08T14:47:00.980Z,28.14
2022-08-08T14:52:09.544Z,27.79
2022-08-08T14:57:16.157Z,27.17
2022-08-08T15:02:25.527Z,26.03
2022-08-08T15:07:39.374Z,25.59
2022-08-08T15:12:44.672Z,26.30
2022-08-08T15:17:49.307Z,27.37
2022-08-08T15:22:54.995Z,27.51
2022-08-08T15:28:32.486Z,27.46
2022-08-08T15:33:35.792Z,27.29
2022-08-08T15:38:50.583Z,25.96
2022-08-08T15:44:00.971Z,26.29
2022-08-08T15:49:05.228Z,27.12
2022-08-08T15:54:18.486Z,26.92
2022-08-08T16:00:06.076Z,25.39
2022-08-08T16:04:54.749Z,25.05
2022-08-08T16:13:02.824Z,24.49
2022-08-08T16:15:25.372Z,23.68
2022-08-08T16:20:35.244Z,23.12
2022-08-08T16:25:46.210Z,22.99
2022-08-08T16:30:55.630Z,22.86
2022-08-08T16:35:58.189Z,22.59
2022-08-08T16:41:03.110Z,23.42
2022-08-08T16:46:36.335Z,24.37
2022-08-08T16:55:19.496Z,23.53
2022-08-08T16:57:01.907Z,23.96
2022-08-08T17:02:12.438Z,23.20
2022-08-08T17:07:29.287Z,23.67
2022-08-08T17:12:34.002Z,23.43
2022-08-08T17:18:01.026Z,23.55
2022-08-08T17:23:16.367Z,23.74
2022-08-08T17:28:31.490Z,23.33
2022-08-08T17:34:49.251Z,23.05
2022-08-08T17:39:05.369Z,22.93
2022-08-08T17:44:26.923Z,22.72
2022-08-08T17:49:42.597Z,22.30
2022-08-08T17:54:46.497Z,21.76
2022-08-08T17:59:58.611Z,21.38
2022-08-08T18:05:04.957Z,21.05
2022-08-08T18:10:08.410Z,20.89
2022-08-08T18:15:13.057Z,20.71
2022-08-08T18:20:43.081Z,20.56
2022-08-08T18:25:38.211Z,20.38
2022-08-08T18:30:43.395Z,20.23
2022-08-08T18:35:48.899Z,19.99
2022-08-08T18:40:51.554Z,19.81
2022-08-08T18:46:52.740Z,19.61
2022-08-08T18:51:48.293Z,19.43
2022-08-08T18:56:43.988Z,19.19
2022-08-08T19:02:28.269Z,18.98
2022-08-08T19:07:10.235Z,18.74
2022-08-08T19:12:13.024Z,18.50
2022-08-08T19:17:29.331Z,18.29
2022-08-08T19:22:39.898Z,18.05
2022-08-08T19:27:55.939Z,17.84
2022-08-08T19:33:01.006Z,17.64
2022-08-08T19:38:04.422Z,17.58
2022-08-08T19:43:11.533Z,17.48
2022-08-08T19:48:29.396Z,17.33
2022-08-08T19:53:51.804Z,17.16
2022-08-08T19:58:55.809Z,17.03
2022-08-08T20:04:03.402Z,16.93
2022-08-08T20:09:09.067Z,16.81
2022-08-08T20:14:33.782Z,16.73
2022-08-08T20:19:42.257Z,16.62
2022-08-08T20:24:46.960Z,16.49
2022-08-08T20:29:55.541Z,16.44
2022-08-08T20:35:04.825Z,16.35
2022-08-08T20:40:10.346Z,16.21
2022-08-08T20:45:55.108Z,16.14
2022-08-08T20:50:43.505Z,16.09
2022-08-08T20:55:51.162Z,16.02
2022-08-08T21:00:54.098Z,16.02
2022-08-08T21:05:58.791Z,16.00
2022-08-08T21:11:02.153Z,15.99
2022-08-08T21:16:18.210Z,16.00
2022-08-08T21:21:39.550Z,15.96
2022-08-08T21:26:43.648Z,15.97
2022-08-08T21:31:58.449Z,15.91
2022-08-08T21:37:11.437Z,15.85
2022-08-08T21:42:18.955Z,15.79
2022-08-08T21:48:06.371Z,15.74
2022-08-08T21:54:31.998Z,15.68
2022-08-08T21:58:16.362Z,15.61
2022-08-08T22:03:20.605Z,15.59
2022-08-08T22:08:25.172Z,15.50
2022-08-08T22:13:47.669Z,15.46
2022-08-08T22:18:52.755Z,15.35
2022-08-08T22:23:58.111Z,15.26
2022-08-08T22:29:13.742Z,15.15
2022-08-08T22:34:26.915Z,15.02
2022-08-08T22:39:45.583Z,14.88
2022-08-08T22:44:48.979Z,14.74
2022-08-08T22:49:53.951Z,14.63
2022-08-08T22:55:05.734Z,14.60
2022-08-08T23:00:11.742Z,14.52
2022-08-08T23:05:16.188Z,14.46
2022-08-08T23:10:21.406Z,14.41
2022-08-08T23:16:38.674Z,14.32
2022-08-08T23:20:54.610Z,14.33
2022-08-08T23:25:59.047Z,14.23
2022-08-08T23:31:02.382Z,14.20
2022-08-08T23:36:07.717Z,14.22
2022-08-08T23:41:22.909Z,14.13
2022-08-08T23:49:01.800Z,13.99
2022-08-08T23:52:05.995Z,13.96
2022-08-08T23:57:25.541Z,13.89
